sensor_id;sensor_type;location;lat;lon;timestamp;pressure;altitude;pressure_sealevel;temperature;humidity
67545;BME280;54380;47.770;11.150;2023-02-18T06:50:45;95603.69;;;10.17;59.32
67545;BME280;54380;47.770;11.150;2023-02-18T06:56:28;95595.19;;;10.26;58.80
67545;BME280;54380;47.770;11.150;2023-02-18T06:58:56;95596.38;;;10.30;58.65
67545;BME280;54380;47.770;11.150;2023-02-18T07:01:29;95598.53;;;10.33;58.85
67545;BME280;54380;47.770;11.150;2023-02-18T08:17:09;95592.53;;;13.10;53.18
67545;BME280;54380;47.770;11.150;2023-02-18T08:19:36;95593.72;;;13.24;52.79
67545;BME280;54380;47.770;11.150;2023-02-18T08:22:06;95590.72;;;13.37;52.23
67545;BME280;54380;47.770;11.150;2023-02-18T08:24:36;95589.00;;;13.48;51.75
67545;BME280;54380;47.770;11.150;2023-02-18T08:30:02;95581.47;;;13.67;51.23
67545;BME280;54380;47.770;11.150;2023-02-18T08:32:33;95577.28;;;13.76;50.67
67545;BME280;54380;47.770;11.150;2023-02-18T08:35:02;95578.63;;;13.79;51.22
67545;BME280;54380;47.770;11.150;2023-02-18T08:37:29;95575.50;;;13.87;51.02
67545;BME280;54380;47.770;11.150;2023-02-18T08:42:56;95570.16;;;14.14;50.73
67545;BME280;54380;47.770;11.150;2023-02-18T08:45:25;95566.78;;;14.29;50.27
67545;BME280;54380;47.770;11.150;2023-02-18T08:47:57;95569.81;;;14.43;50.14
67545;BME280;54380;47.770;11.150;2023-02-18T08:50:45;95577.06;;;14.58;49.83
67545;BME280;54380;47.770;11.150;2023-02-18T08:56:29;95569.25;;;14.93;48.66
67545;BME280;54380;47.770;11.150;2023-02-18T08:59:04;95565.31;;;15.01;48.60
67545;BME280;54380;47.770;11.150;2023-02-18T09:01:33;95566.91;;;15.07;48.21
67545;BME280;54380;47.770;11.150;2023-02-18T09:04:02;95566.94;;;15.12;48.82
67545;BME280;54380;47.770;11.150;2023-02-18T09:06:44;95561.91;;;15.26;49.36
67545;BME280;54380;47.770;11.150;2023-02-18T09:09:14;95552.38;;;15.46;48.32
67545;BME280;54380;47.770;11.150;2023-02-18T09:11:43;95555.31;;;15.49;47.72
67545;BME280;54380;47.770;11.150;2023-02-18T09:14:12;95547.56;;;15.48;47.66
67545;BME280;54380;47.770;11.150;2023-02-18T09:16:39;95556.88;;;15.40;47.35
67545;BME280;54380;47.770;11.150;2023-02-18T09:19:08;95551.56;;;15.30;47.71
67545;BME280;54380;47.770;11.150;2023-02-18T09:21:36;95551.56;;;15.35;48.09
67545;BME280;54380;47.770;11.150;2023-02-18T09:24:07;95538.00;;;15.52;47.79
67545;BME280;54380;47.770;11.150;2023-02-18T09:26:37;95534.81;;;15.65;47.56
67545;BME280;54380;47.770;11.150;2023-02-18T09:29:08;95542.31;;;15.78;47.64
67545;BME280;54380;47.770;11.150;2023-02-18T09:31:35;95543.38;;;15.83;47.21
67545;BME280;54380;47.770;11.150;2023-02-18T09:34:04;95531.13;;;15.82;46.83
67545;BME280;54380;47.770;11.150;2023-02-18T09:39:13;95532.69;;;15.67;46.81
67545;BME280;54380;47.770;11.150;2023-02-18T09:41:57;95521.78;;;15.64;46.83
67545;BME280;54380;47.770;11.150;2023-02-18T09:44:27;95525.50;;;15.57;47.17
67545;BME280;54380;47.770;11.150;2023-02-18T09:46:58;95522.06;;;15.57;46.93
67545;BME280;54380;47.770;11.150;2023-02-18T09:49:44;95521.25;;;15.46;47.00
67545;BME280;54380;47.770;11.150;2023-02-18T09:52:29;95514.06;;;15.47;47.23
67545;BME280;54380;47.770;11.150;2023-02-18T10:04:42;95496.75;;;15.44;47.42
67545;BME280;54380;47.770;11.150;2023-02-18T10:10:34;95494.66;;;15.56;47.09
67545;BME280;54380;47.770;11.150;2023-02-18T10:13:31;95495.44;;;15.67;47.04
67545;BME280;54380;47.770;11.150;2023-02-18T10:15:58;95489.06;;;15.73;46.80
67545;BME280;54380;47.770;11.150;2023-02-18T10:18:28;95477.88;;;15.71;46.49
67545;BME280;54380;47.770;11.150;2023-02-18T10:21:03;95470.19;;;15.75;47.15
67545;BME280;54380;47.770;11.150;2023-02-18T10:26:16;95468.81;;;15.93;46.61
67545;BME280;54380;47.770;11.150;2023-02-18T10:28:46;95459.78;;;15.94;46.54
67545;BME280;54380;47.770;11.150;2023-02-18T10:31:19;95456.81;;;16.00;46.55
67545;BME280;54380;47.770;11.150;2023-02-18T10:33:59;95453.63;;;16.04;46.36
67545;BME280;54380;47.770;11.150;2023-02-18T10:36:41;95439.00;;;16.01;46.31
67545;BME280;54380;47.770;11.150;2023-02-18T10:39:43;95444.56;;;16.05;46.25
67545;BME280;54380;47.770;11.150;2023-02-18T10:42:20;95433.38;;;16.08;46.37
67545;BME280;54380;47.770;11.150;2023-02-18T10:44:57;95431.78;;;16.12;46.64
67545;BME280;54380;47.770;11.150;2023-02-18T10:47:37;95427.97;;;16.28;46.41
